Time;durP1;ratioP1;P1;durP2;ratioP2;P2;SDS_P1;SDS_P2;PMS_P1;PMS_P2;Temp;Humidity;BMP_temperature;BMP_pressure;BME280_temperature;BME280_humidity;BME280_pressure;Samples;Min_cycle;Max_cycle;Signal;HPM_P1;HPM_P2
2022/12/04 00:01:44;;;;;;;0.30;0.30;;;;;;;-0.25;100.00;101793.00;4974613;28;20565;-71
2022/12/04 00:04:09;;;;;;;0.30;0.30;;;;;;;-0.20;100.00;101785.91;4961958;28;20056;-72
2022/12/04 00:06:35;;;;;;;0.30;0.30;;;;;;;-0.29;100.00;101750.88;4990139;28;20085;-72
2022/12/04 00:09:01;;;;;;;0.35;0.35;;;;;;;-0.08;100.00;101778.66;4978830;28;20068;-72
2022/12/04 00:11:28;;;;;;;0.30;0.30;;;;;;;0.06;100.00;101775.78;4969374;28;20145;-72
2022/12/04 00:13:54;;;;;;;0.30;0.30;;;;;;;-0.17;100.00;101756.81;4977828;28;20628;-72
2022/12/04 00:16:22;;;;;;;0.20;0.20;;;;;;;-0.06;100.00;101774.22;4976124;28;20022;-72
2022/12/04 00:18:47;;;;;;;0.30;0.30;;;;;;;0.02;100.00;101772.28;4974422;28;20022;-72
2022/12/04 00:21:14;;;;;;;0.30;0.30;;;;;;;-0.06;100.00;101771.59;4984494;28;20030;-72
2022/12/04 00:23:41;;;;;;;0.30;0.30;;;;;;;-0.20;100.00;101751.59;4976644;28;20030;-72
2022/12/04 00:26:08;;;;;;;0.38;0.38;;;;;;;-0.05;100.00;101762.78;4972498;28;20438;-72
2022/12/04 00:28:34;;;;;;;0.22;0.22;;;;;;;0.00;100.00;101771.50;4990564;28;20674;-72
2022/12/04 00:31:04;;;;;;;0.30;0.30;;;;;;;-0.05;100.00;101763.63;4991553;28;20033;-72
2022/12/04 00:33:29;;;;;;;0.30;0.30;;;;;;;-0.19;100.00;101741.91;4978268;28;20080;-72
2022/12/04 00:35:56;;;;;;;0.22;0.22;;;;;;;-0.11;100.00;101737.34;4966953;28;20125;-71
2022/12/04 00:38:21;;;;;;;0.30;0.30;;;;;;;0.04;100.00;101764.38;4991862;28;20028;-72
2022/12/04 00:40:49;;;;;;;0.30;0.30;;;;;;;-0.03;100.00;101764.47;4998009;28;20030;-72
2022/12/04 00:43:14;;;;;;;0.30;0.30;;;;;;;-0.19;100.00;101763.88;4979057;28;20025;-72
2022/12/04 00:45:39;;;;;;;0.30;0.30;;;;;;;-0.37;100.00;101729.91;4998969;28;20037;-72
2022/12/04 00:48:04;;;;;;;0.30;0.30;;;;;;;-0.19;100.00;101753.31;4995281;28;20436;-72
2022/12/04 00:50:30;;;;;;;0.20;0.20;;;;;;;-0.14;100.00;101758.53;4990383;28;20547;-72
2022/12/04 00:52:56;;;;;;;0.30;0.30;;;;;;;-0.13;100.00;101754.97;4977417;28;20113;-72
2022/12/04 00:55:22;;;;;;;0.25;0.25;;;;;;;-0.07;100.00;101754.88;4991369;28;20042;-72
2022/12/04 00:57:47;;;;;;;0.30;0.30;;;;;;;-0.26;100.00;101719.16;4979840;28;20443;-73
2022/12/04 01:00:12;;;;;;;0.30;0.30;;;;;;;-0.02;100.00;101755.66;4976172;28;20030;-72
2022/12/04 01:02:38;;;;;;;0.30;0.30;;;;;;;-0.06;100.00;101746.03;4978981;28;20045;-72
2022/12/04 01:05:03;;;;;;;0.30;0.30;;;;;;;-0.10;100.00;101749.63;4969349;28;20030;-72
2022/12/04 01:07:29;;;;;;;0.30;0.30;;;;;;;-0.04;100.00;101760.09;4980624;28;20031;-72
2022/12/04 01:09:54;;;;;;;0.30;0.30;;;;;;;-0.16;100.00;101740.06;4992749;28;20034;-72
2022/12/04 01:12:19;;;;;;;0.30;0.30;;;;;;;-0.05;100.00;101765.41;4990368;28;20224;-72
2022/12/04 01:14:44;;;;;;;0.20;0.20;;;;;;;-0.13;100.00;101743.56;4987327;28;20049;-72
2022/12/04 01:17:10;;;;;;;0.30;0.30;;;;;;;-0.08;100.00;101763.69;4982716;28;20040;-72
2022/12/04 01:19:35;;;;;;;0.35;0.35;;;;;;;-0.10;100.00;101768.13;4994214;28;20073;-72
2022/12/04 01:22:02;;;;;;;0.25;0.25;;;;;;;-0.08;100.00;101779.53;4997912;28;20087;-72
2022/12/04 01:24:27;;;;;;;0.30;0.30;;;;;;;-0.08;100.00;101758.41;4984889;28;20034;-73
2022/12/04 01:26:53;;;;;;;0.30;0.30;;;;;;;-0.27;100.00;101747.34;4972099;28;20044;-72
2022/12/04 01:29:18;;;;;;;0.30;0.30;;;;;;;-0.06;100.00;101772.44;5002370;28;20137;-72
2022/12/04 01:31:43;;;;;;;0.30;0.30;;;;;;;-0.05;100.00;101763.63;4991092;28;20072;-72
2022/12/04 01:34:09;;;;;;;0.30;0.30;;;;;;;0.05;100.00;101771.38;4994633;28;20110;-72
2022/12/04 01:36:34;;;;;;;0.30;0.30;;;;;;;-0.08;100.00;101761.03;4984209;28;20488;-72
2022/12/04 01:38:59;;;;;;;0.30;0.30;;;;;;;0.11;100.00;101766.00;4998659;28;20559;-72
2022/12/04 01:41:27;;;;;;;0.30;0.30;;;;;;;-0.08;100.00;101771.59;4983233;28;20033;-71
2022/12/04 01:44:20;;;;;;;0.30;0.30;;;;;;;0.07;100.00;101759.03;5000959;28;20037;-72
2022/12/04 01:46:50;;;;;;;0.30;0.30;;;;;;;-0.13;100.00;101744.41;4992311;28;20370;-72
2022/12/04 01:49:23;;;;;;;0.30;0.30;;;;;;;-0.26;100.00;101735.00;4997816;28;20033;-72
2022/12/04 01:51:55;;;;;;;0.30;0.30;;;;;;;-0.13;100.00;101751.47;5001114;28;20508;-72
2022/12/04 01:54:27;;;;;;;0.30;0.30;;;;;;;-0.13;100.00;101749.69;5001477;28;20478;-72
2022/12/04 01:56:56;;;;;;;0.30;0.30;;;;;;;-0.14;100.00;101757.66;4964968;28;20037;-72
2022/12/04 01:59:25;;;;;;;0.30;0.30;;;;;;;-0.11;100.00;101729.41;4973966;28;20022;-72
2022/12/04 02:02:09;;;;;;;0.30;0.30;;;;;;;-0.22;100.00;101742.81;4971709;28;20026;-72
2022/12/04 02:04:35;;;;;;;0.30;0.30;;;;;;;-0.05;100.00;101755.72;4990362;28;20034;-72
2022/12/04 02:07:00;;;;;;;0.30;0.30;;;;;;;-0.11;100.00;101755.81;4974418;28;20037;-72
2022/12/04 02:09:26;;;;;;;0.30;0.30;;;;;;;-0.08;100.00;101753.13;4975917;28;20436;-72
2022/12/04 02:12:04;;;;;;;0.30;0.30;;;;;;;-0.07;100.00;101754.00;4985791;28;20520;-72
2022/12/04 02:14:45;;;;;;;0.20;0.20;;;;;;;-0.23;100.00;101714.69;4984445;28;20034;-72
2022/12/04 02:17:19;;;;;;;0.20;0.20;;;;;;;-0.11;100.00;101744.41;4971188;28;20021;-72
2022/12/04 02:19:57;;;;;;;;;;;;;;;-0.04;100.00;101754.81;4980395;28;20045;-71
2022/12/04 02:22:34;;;;;;;0.30;0.30;;;;;;;-0.13;100.00;101754.97;4980416;28;19917;-72
2022/12/04 02:25:21;;;;;;;0.30;0.30;;;;;;;-0.34;100.00;101730.72;4985593;28;20060;-72
2022/12/04 02:28:08;;;;;;;0.30;0.30;;;;;;;-0.19;100.00;101753.31;4996957;28;20045;-72
2022/12/04 02:30:36;;;;;;;0.30;0.30;;;;;;;-0.23;100.00;101735.78;4977393;28;20034;-72
2022/12/04 02:33:23;;;;;;;0.22;0.22;;;;;;;-0.17;100.00;101755.94;4972918;28;20526;-72
2022/12/04 02:36:01;;;;;;;0.30;0.30;;;;;;;-0.13;100.00;101741.78;4981960;28;20037;-72
2022/12/04 02:38:34;;;;;;;0.30;0.30;;;;;;;-0.07;100.00;101754.00;4978771;28;20041;-72
2022/12/04 02:41:37;;;;;;;0.30;0.30;;;;;;;-0.01;100.00;101752.13;4969872;28;20030;-72
2022/12/04 02:44:07;;;;;;;0.30;0.30;;;;;;;-0.12;100.00;101751.44;4917598;29;20282;-72
2022/12/04 02:46:38;;;;;;;0.30;0.30;;;;;;;-0.12;100.00;101746.16;4972732;28;20042;-72
2022/12/04 02:49:07;;;;;;;0.30;0.30;;;;;;;0.02;100.00;101752.97;4978909;28;20112;-72
2022/12/04 02:51:34;;;;;;;0.30;0.30;;;;;;;-0.11;100.00;101747.91;4988296;28;20132;-71
2022/12/04 02:54:37;;;;;;;0.20;0.20;;;;;;;-0.12;100.00;101746.16;4985777;28;20034;-72
2022/12/04 02:57:05;;;;;;;0.30;0.30;;;;;;;-0.21;100.00;101718.16;4923019;28;20050;-72
2022/12/04 02:59:41;;;;;;;0.30;0.30;;;;;;;-0.17;100.00;101733.06;4979004;28;20108;-72
2022/12/04 03:02:22;;;;;;;0.30;0.30;;;;;;;-0.23;100.00;101716.47;4998731;28;20038;-72
2022/12/04 03:04:49;;;;;;;0.30;0.30;;;;;;;-0.12;100.00;101724.19;4975967;28;20042;-72
2022/12/04 03:07:18;;;;;;;0.30;0.30;;;;;;;-0.18;100.00;101710.19;4995118;28;20061;-72
2022/12/04 03:09:58;;;;;;;0.30;0.30;;;;;;;-0.02;100.00;101733.69;4968135;28;20030;-72
2022/12/04 03:12:47;;;;;;;0.30;0.30;;;;;;;-0.17;100.00;101711.94;4985595;28;20089;-72
2022/12/04 03:15:20;;;;;;;0.30;0.30;;;;;;;-0.13;100.00;101712.72;4994219;28;20077;-72
2022/12/04 03:18:16;;;;;;;0.20;0.20;;;;;;;-0.09;100.00;101737.31;4967245;28;20033;-71
2022/12/04 03:20:45;;;;;;;0.40;0.40;;;;;;;-0.08;100.00;101736.44;4992812;28;20042;-72
2022/12/04 03:23:14;;;;;;;0.30;0.30;;;;;;;-0.01;100.00;101738.91;4996532;28;20116;-72
2022/12/04 03:25:55;;;;;;;0.30;0.30;;;;;;;-0.17;100.00;101703.16;4998589;28;20058;-72
2022/12/04 03:28:50;;;;;;;0.30;0.30;;;;;;;-0.15;100.00;101727.75;4980754;28;20864;-71
2022/12/04 03:31:21;;;;;;;0.30;0.30;;;;;;;-0.06;100.00;101732.84;4991660;28;20077;-72
2022/12/04 03:33:49;;;;;;;0.30;0.30;;;;;;;-0.07;100.00;101733.75;4960560;28;20856;-72
2022/12/04 03:36:24;;;;;;;0.30;0.30;;;;;;;-0.21;100.00;101722.59;4994351;28;20149;-72
2022/12/04 03:38:56;;;;;;;0.30;0.30;;;;;;;-0.04;100.00;101736.31;4977428;28;20030;-72
2022/12/04 03:41:30;;;;;;;0.30;0.30;;;;;;;0.03;100.00;101739.72;4994535;28;20034;-72
2022/12/04 03:44:02;;;;;;;0.30;0.30;;;;;;;-0.14;100.00;101737.41;4978024;28;20029;-72
2022/12/04 03:46:47;;;;;;;0.20;0.20;;;;;;;-0.05;100.00;101734.59;4991973;28;20408;-72
2022/12/04 03:49:45;;;;;;;0.30;0.30;;;;;;;0.02;100.00;101732.69;4998553;28;20030;-72
2022/12/04 03:52:34;;;;;;;0.30;0.30;;;;;;;-0.11;100.00;101700.38;4961162;28;20045;-72
2022/12/04 03:55:10;;;;;;;0.30;0.30;;;;;;;-0.01;100.00;101716.94;4995925;28;20041;-72
2022/12/04 03:57:39;;;;;;;0.35;0.35;;;;;;;-0.21;100.00;101683.84;4984300;28;20096;-72
2022/12/04 04:00:14;;;;;;;0.20;0.20;;;;;;;0.03;100.00;101728.28;4976234;28;20479;-72
2022/12/04 04:02:48;;;;;;;0.30;0.30;;;;;;;-0.11;100.00;101705.66;4979089;28;20041;-72
2022/12/04 04:05:14;;;;;;;0.30;0.30;;;;;;;-0.13;100.00;101701.31;4995861;28;20026;-72
2022/12/04 04:07:52;;;;;;;0.20;0.20;;;;;;;-0.21;100.00;101706.75;4961316;28;20105;-72
2022/12/04 04:10:23;;;;;;;0.30;0.30;;;;;;;-0.12;100.00;101740.03;4977123;28;20030;-72
2022/12/04 04:24:15;;;;;;;0.30;0.30;;;;;;;-0.16;100.00;101702.25;4978906;28;20147;-71
2022/12/04 04:26:43;;;;;;;0.30;0.30;;;;;;;-0.10;100.00;101720.59;4993586;28;20395;-72
2022/12/04 04:29:09;;;;;;;0.30;0.30;;;;;;;-0.26;100.00;101690.13;4979079;28;20057;-72
2022/12/04 04:31:37;;;;;;;0.22;0.22;;;;;;;-0.09;100.00;101710.94;4966208;28;20128;-72
2022/12/04 04:34:11;;;;;;;0.30;0.30;;;;;;;0.02;100.00;101718.63;4977790;28;20030;-72
2022/12/04 04:36:39;;;;;;;0.30;0.30;;;;;;;-0.06;100.00;101717.00;4992398;28;20109;-72
2022/12/04 04:39:18;;;;;;;0.20;0.20;;;;;;;0.00;100.00;101716.03;4994182;28;20384;-73
2022/12/04 04:41:49;;;;;;;0.30;0.30;;;;;;;0.03;100.00;101717.72;4985074;28;20056;-72
2022/12/04 04:44:40;;;;;;;0.30;0.30;;;;;;;-0.11;100.00;101725.91;4979206;28;20022;-72
2022/12/04 04:47:08;;;;;;;0.30;0.30;;;;;;;-0.14;100.00;101700.47;4998526;28;20046;-72
2022/12/04 04:49:36;;;;;;;0.30;0.30;;;;;;;-0.11;100.00;101716.22;4971430;28;20057;-72
2022/12/04 04:52:02;;;;;;;0.20;0.20;;;;;;;-0.18;100.00;101699.63;4981516;28;20491;-72
2022/12/04 04:54:28;;;;;;;0.30;0.30;;;;;;;0.00;100.00;101721.31;4983375;28;20037;-72
2022/12/04 04:56:54;;;;;;;0.30;0.30;;;;;;;-0.11;100.00;101703.00;4979189;28;20049;-72
2022/12/04 04:59:19;;;;;;;0.25;0.25;;;;;;;-0.08;100.00;101715.31;4983597;28;20033;-72
2022/12/04 05:01:45;;;;;;;0.20;0.20;;;;;;;-0.06;100.00;101710.88;4967186;28;20030;-72
2022/12/04 05:04:11;;;;;;;0.30;0.30;;;;;;;0.06;100.00;101725.59;4968540;28;20049;-72
2022/12/04 05:06:36;;;;;;;0.25;0.25;;;;;;;-0.24;100.00;101704.16;4975651;28;20166;-72
2022/12/04 05:09:02;;;;;;;0.30;0.30;;;;;;;-0.08;100.00;101728.50;4981390;28;20053;-72
2022/12/04 05:11:28;;;;;;;0.30;0.30;;;;;;;-0.38;100.00;101673.59;4974626;28;20061;-72
2022/12/04 05:13:53;;;;;;;0.20;0.20;;;;;;;0.03;100.00;101725.66;4964821;28;20030;-72
2022/12/04 05:16:18;;;;;;;0.30;0.30;;;;;;;-0.08;100.00;101707.38;4978209;28;20504;-72
2022/12/04 05:21:28;;;;;;;0.28;0.28;;;;;;;0.05;100.00;101734.41;4994108;28;21356;-72
2022/12/04 05:23:53;;;;;;;0.30;0.30;;;;;;;-0.08;100.00;101712.66;4974865;28;20038;-72
2022/12/04 05:26:19;;;;;;;0.30;0.30;;;;;;;-0.10;100.00;101715.31;4976207;28;20495;-72
2022/12/04 05:28:44;;;;;;;0.22;0.22;;;;;;;-0.15;100.00;101709.28;4978008;28;20515;-71
2022/12/04 05:31:09;;;;;;;0.30;0.30;;;;;;;0.02;100.00;101732.69;4965175;28;20504;-72
2022/12/04 05:33:35;;;;;;;0.30;0.30;;;;;;;-0.13;100.00;101706.59;4976292;28;20038;-72
2022/12/04 05:36:05;;;;;;;0.20;0.20;;;;;;;0.08;100.00;101732.56;4973875;28;20454;-72
2022/12/04 05:38:31;;;;;;;0.20;0.20;;;;;;;-0.01;100.00;101731.00;4962953;28;20446;-72
2022/12/04 05:41:01;;;;;;;0.30;0.30;;;;;;;0.34;100.00;101738.25;4962321;28;20026;-72
2022/12/04 05:43:27;;;;;;;0.30;0.30;;;;;;;0.08;100.00;101727.28;4965261;28;20032;-72
2022/12/04 05:45:53;;;;;;;0.30;0.30;;;;;;;0.17;100.00;101734.16;4973846;28;20022;-72
2022/12/04 05:48:18;;;;;;;0.30;0.30;;;;;;;0.01;100.00;101709.81;4961800;28;20060;-72
2022/12/04 05:50:43;;;;;;;0.30;0.30;;;;;;;0.06;100.00;101693.91;4963499;28;20034;-72
2022/12/04 05:53:09;;;;;;;0.28;0.28;;;;;;;0.11;100.00;101724.59;4970483;28;20492;-72
2022/12/04 05:55:34;;;;;;;0.20;0.20;;;;;;;-0.05;100.00;101696.78;4977904;28;20038;-72
2022/12/04 05:57:59;;;;;;;0.20;0.20;;;;;;;0.14;100.00;101716.63;4977227;28;20060;-72
2022/12/04 06:00:25;;;;;;;0.20;0.20;;;;;;;0.19;100.00;101726.22;4973299;28;21978;-72
2022/12/04 06:02:51;;;;;;;0.20;0.20;;;;;;;-0.09;100.00;101687.16;4963620;28;20388;-72
2022/12/04 06:05:16;;;;;;;0.20;0.20;;;;;;;0.09;100.00;101704.41;4974431;28;20050;-72
2022/12/04 06:07:41;;;;;;;0.20;0.20;;;;;;;0.04;100.00;101709.78;4976414;28;20483;-72
2022/12/04 06:10:07;;;;;;;0.30;0.30;;;;;;;-0.14;100.00;101683.75;4974143;28;20030;-72
2022/12/04 06:12:32;;;;;;;0.30;0.30;;;;;;;0.07;100.00;101719.41;4974917;28;20029;-72
2022/12/04 06:14:57;;;;;;;0.20;0.20;;;;;;;-0.09;100.00;101688.03;4975703;28;20030;-72
2022/12/04 06:17:23;;;;;;;0.30;0.30;;;;;;;-0.20;100.00;101696.16;4963590;28;20389;-72
2022/12/04 06:19:48;;;;;;;0.25;0.25;;;;;;;0.00;100.00;101710.75;4967507;28;21910;-72
2022/12/04 06:22:14;;;;;;;0.30;0.30;;;;;;;-0.12;100.00;101681.94;4977195;28;20129;-72
2022/12/04 06:24:39;;;;;;;0.30;0.30;;;;;;;-0.05;100.00;101694.97;4994885;28;20095;-72
2022/12/04 06:27:04;;;;;;;0.20;0.20;;;;;;;0.11;100.00;101698.19;4999530;28;20030;-72
2022/12/04 06:29:30;;;;;;;0.30;0.30;;;;;;;-0.09;100.00;101684.53;4995628;28;20728;-72
2022/12/04 06:31:55;;;;;;;0.20;0.20;;;;;;;-0.21;100.00;101685.63;4985844;28;20472;-72
2022/12/04 06:34:20;;;;;;;0.30;0.30;;;;;;;-0.14;100.00;101697.81;4982021;28;20024;-72
2022/12/04 06:36:46;;;;;;;0.22;0.22;;;;;;;0.01;100.00;101711.63;4999427;28;20048;-72
2022/12/04 06:39:11;;;;;;;0.30;0.30;;;;;;;-0.12;100.00;101696.00;4996909;28;20488;-72
2022/12/04 06:41:36;;;;;;;0.20;0.20;;;;;;;-0.06;100.00;101682.69;5000697;28;20034;-72
2022/12/04 06:44:02;;;;;;;0.30;0.30;;;;;;;-0.14;100.00;101689.91;4995739;28;20033;-72
2022/12/04 06:46:29;;;;;;;0.30;0.30;;;;;;;-0.35;100.00;101663.00;4980464;28;20412;-72
2022/12/04 06:48:56;;;;;;;0.20;0.20;;;;;;;-0.13;100.00;101688.97;4978358;28;20030;-72
2022/12/04 06:51:24;;;;;;;0.20;0.20;;;;;;;0.20;100.00;101718.25;4979940;28;20472;-72
2022/12/04 06:53:50;;;;;;;0.30;0.30;;;;;;;-0.09;100.00;101701.22;4995485;28;20453;-72
2022/12/04 06:56:21;;;;;;;0.30;0.30;;;;;;;0.01;100.00;101724.81;4973064;28;20042;-72
2022/12/04 06:58:47;;;;;;;0.25;0.25;;;;;;;-0.25;100.00;101676.03;4981130;28;20034;-72
2022/12/04 07:01:15;;;;;;;0.22;0.22;;;;;;;-0.24;100.00;101707.66;4980335;28;20030;-72
2022/12/04 07:03:40;;;;;;;0.20;0.20;;;;;;;-0.11;100.00;101724.13;4983740;28;20048;-72
2022/12/04 07:06:24;;;;;;;0.20;0.20;;;;;;;-0.06;100.00;101737.28;4969232;28;20026;-72
2022/12/04 07:08:53;;;;;;;0.30;0.30;;;;;;;0.03;100.00;101730.94;4982864;28;20030;-72
2022/12/04 07:11:20;;;;;;;0.22;0.22;;;;;;;0.01;100.00;101717.75;4960096;28;20041;-72
2022/12/04 07:13:45;;;;;;;0.25;0.25;;;;;;;-0.23;100.00;101717.31;4960738;28;20030;-71
2022/12/04 07:16:13;;;;;;;0.20;0.20;;;;;;;-0.18;100.00;101715.47;4978460;28;20037;-72
2022/12/04 07:18:39;;;;;;;0.25;0.25;;;;;;;-0.13;100.00;101704.81;4979048;28;20612;-72
2022/12/04 07:21:06;;;;;;;0.30;0.30;;;;;;;0.03;100.00;101742.34;4976260;28;20120;-72
2022/12/04 07:23:31;;;;;;;0.30;0.30;;;;;;;-0.17;100.00;101716.34;4974317;28;20048;-72
2022/12/04 07:25:56;;;;;;;0.30;0.30;;;;;;;-0.07;100.00;101733.75;4978073;28;20462;-72
2022/12/04 07:28:22;;;;;;;0.20;0.20;;;;;;;-0.07;100.00;101724.97;4965100;28;20037;-72
2022/12/04 07:30:47;;;;;;;0.30;0.30;;;;;;;0.10;100.00;101749.25;4995076;28;20048;-72
2022/12/04 07:33:12;;;;;;;0.30;0.30;;;;;;;0.07;100.00;101751.09;4983479;28;20080;-72
2022/12/04 07:35:38;;;;;;;0.30;0.30;;;;;;;0.19;100.00;101756.13;5003588;28;20458;-72
2022/12/04 07:38:03;;;;;;;0.20;0.20;;;;;;;0.02;100.00;101747.69;4967833;28;20034;-72
2022/12/04 07:40:29;;;;;;;0.30;0.30;;;;;;;-0.04;100.00;101744.25;4987642;28;20057;-71
2022/12/04 07:42:54;;;;;;;0.30;0.30;;;;;;;0.09;100.00;101757.22;4980465;28;20425;-72
2022/12/04 07:45:20;;;;;;;0.30;0.30;;;;;;;0.07;100.00;101741.41;4978353;28;20061;-72
2022/12/04 07:47:45;;;;;;;0.20;0.20;;;;;;;-0.01;100.00;101731.00;4973390;28;20022;-72
2022/12/04 07:50:10;;;;;;;0.30;0.30;;;;;;;0.12;100.00;101728.13;4977599;28;20034;-72
2022/12/04 07:52:37;;;;;;;0.20;0.20;;;;;;;0.11;100.00;101756.28;4970079;28;20026;-72
2022/12/04 07:55:04;;;;;;;0.20;0.20;;;;;;;0.07;100.00;101730.84;4980572;28;20026;-72
2022/12/04 07:57:29;;;;;;;0.20;0.20;;;;;;;0.05;100.00;101724.72;4977618;28;20030;-72
2022/12/04 07:59:54;;;;;;;0.30;0.30;;;;;;;0.12;100.00;101736.06;4968683;28;20038;-72
2022/12/04 08:02:20;;;;;;;0.30;0.30;;;;;;;0.10;100.00;101740.50;4982251;28;20041;-72
2022/12/04 08:04:45;;;;;;;0.30;0.30;;;;;;;0.21;100.00;101742.91;4963984;28;20022;-72
2022/12/04 08:07:11;;;;;;;0.20;0.20;;;;;;;0.23;100.00;101736.69;4969855;28;20029;-72
2022/12/04 08:09:36;;;;;;;0.30;0.30;;;;;;;0.11;100.00;101744.88;4961695;28;20384;-72
2022/12/04 08:12:01;;;;;;;0.20;0.20;;;;;;;0.28;100.00;101749.78;4970647;28;20466;-72
2022/12/04 08:14:27;;;;;;;0.20;0.20;;;;;;;0.23;100.00;101752.53;4972657;28;20030;-72
2022/12/04 08:16:52;;;;;;;0.30;0.30;;;;;;;0.40;100.00;101762.78;4970424;28;20025;-72
2022/12/04 08:19:17;;;;;;;0.30;0.30;;;;;;;0.18;100.00;101758.81;4960118;28;20539;-72
2022/12/04 08:21:43;;;;;;;0.30;0.30;;;;;;;0.09;100.00;101739.59;4989575;28;20025;-72
2022/12/04 08:24:08;;;;;;;0.30;0.30;;;;;;;0.23;100.00;101752.53;4991354;28;20587;-72
2022/12/04 08:26:33;;;;;;;0.20;0.20;;;;;;;0.28;100.00;101782.38;4991018;28;20026;-72
2022/12/04 08:29:00;;;;;;;0.20;0.20;;;;;;;0.33;100.00;101781.44;4970229;28;20037;-72
2022/12/04 08:31:27;;;;;;;0.30;0.30;;;;;;;0.12;100.00;101749.25;4958032;28;20044;-72
2022/12/04 08:33:55;;;;;;;0.20;0.20;;;;;;;0.26;100.00;101783.31;4958090;28;20120;-72
2022/12/04 08:36:21;;;;;;;0.20;0.20;;;;;;;0.15;100.00;101775.56;4975664;28;20149;-72
2022/12/04 08:38:47;;;;;;;0.25;0.25;;;;;;;0.17;100.00;101757.06;4973579;28;20049;-72
2022/12/04 08:41:13;;;;;;;0.30;0.30;;;;;;;0.16;100.00;101757.97;4976128;28;20092;-72
2022/12/04 08:43:39;;;;;;;0.20;0.20;;;;;;;0.18;100.00;101759.69;4958484;28;20069;-72
2022/12/04 08:46:08;;;;;;;0.30;0.30;;;;;;;0.35;100.00;101772.56;4975979;28;20120;-72
2022/12/04 08:48:33;;;;;;;0.20;0.20;;;;;;;0.15;100.00;101733.31;4972272;28;20099;-72
2022/12/04 08:50:59;;;;;;;0.20;0.20;;;;;;;0.17;100.00;101728.03;4963059;28;20128;-72
2022/12/04 08:53:25;;;;;;;0.20;0.20;;;;;;;0.42;100.00;101760.97;4971326;28;20112;-72
2022/12/04 08:55:51;;;;;;;0.20;0.20;;;;;;;0.35;100.00;101734.72;4976285;28;20026;-72
2022/12/04 08:58:17;;;;;;;0.20;0.20;;;;;;;0.52;100.00;101752.88;4958889;28;20404;-72
2022/12/04 09:00:42;;;;;;;0.20;0.20;;;;;;;0.63;100.00;101757.91;4981416;28;20087;-72
2022/12/04 09:03:11;;;;;;;0.20;0.20;;;;;;;0.38;100.00;101730.22;4974047;28;20025;-72
2022/12/04 09:05:36;;;;;;;0.20;0.20;;;;;;;0.32;100.00;101722.41;4959744;28;20022;-72
2022/12/04 09:08:02;;;;;;;0.20;0.20;;;;;;;0.53;100.00;101754.59;4973715;28;20435;-72
2022/12/04 09:10:27;;;;;;;0.20;0.20;;;;;;;0.43;100.00;101727.47;4964672;28;20053;-72
2022/12/04 09:12:52;;;;;;;0.25;0.25;;;;;;;0.48;100.00;101753.81;4959054;28;20110;-72
2022/12/04 09:15:18;;;;;;;0.20;0.20;;;;;;;0.66;100.00;101771.06;4972512;28;20548;-72
2022/12/04 09:17:43;;;;;;;0.20;0.20;;;;;;;0.38;100.00;101745.22;4956812;28;20033;-72
2022/12/04 09:20:09;;;;;;;0.20;0.20;;;;;;;0.25;100.00;101747.25;4969878;28;20034;-72
2022/12/04 09:22:35;;;;;;;0.20;0.20;;;;;;;0.49;100.00;101761.69;4975456;28;20025;-72
2022/12/04 09:25:00;;;;;;;0.20;0.20;;;;;;;0.23;100.00;101736.69;4967928;28;20041;-72
2022/12/04 09:27:26;;;;;;;0.20;0.20;;;;;;;0.21;100.00;101724.44;4989932;28;20049;-72
2022/12/04 09:29:51;;;;;;;0.20;0.20;;;;;;;0.36;100.00;101726.75;4974391;28;20038;-71
2022/12/04 09:32:16;;;;;;;0.20;0.20;;;;;;;0.44;100.00;101739.78;4972461;28;20030;-72
2022/12/04 09:34:42;;;;;;;0.20;0.20;;;;;;;0.42;100.00;101766.25;4976386;28;20065;-72
2022/12/04 09:37:07;;;;;;;0.30;0.30;;;;;;;0.32;100.00;101766.47;4958232;28;20026;-71
2022/12/04 09:39:32;;;;;;;0.20;0.20;;;;;;;0.36;100.00;101769.00;4974596;28;20148;-72
2022/12/04 09:42:16;;;;;;;0.20;0.20;;;;;;;0.35;100.00;101767.28;4969285;28;20034;-72
2022/12/04 09:44:51;;;;;;;0.20;0.20;;;;;;;0.22;100.00;101756.06;4977117;28;20063;-71
2022/12/04 09:47:28;;;;;;;0.20;0.20;;;;;;;0.43;100.00;101783.84;4973030;28;20022;-71
2022/12/04 09:50:10;;;;;;;0.30;0.30;;;;;;;0.22;100.00;101742.88;4990163;28;20034;-71
2022/12/04 09:53:05;;;;;;;0.20;0.20;;;;;;;0.44;100.00;101774.13;4962757;28;20568;-71
2022/12/04 09:55:34;;;;;;;0.20;0.20;;;;;;;0.52;100.00;101769.56;4959846;28;20030;-71
2022/12/04 09:58:02;;;;;;;0.20;0.20;;;;;;;0.63;100.00;101771.97;4979929;28;20026;-71
2022/12/04 10:00:28;;;;;;;0.20;0.20;;;;;;;0.56;100.00;101771.25;4977608;28;20481;-71
2022/12/04 10:02:58;;;;;;;0.30;0.30;;;;;;;0.46;100.00;101764.41;4972520;28;20435;-72
2022/12/04 10:05:55;;;;;;;0.20;0.20;;;;;;;0.22;100.00;101747.28;4967747;28;20595;-72
2022/12/04 10:08:48;;;;;;;0.20;0.20;;;;;;;0.49;100.00;101772.28;4995387;28;20034;-71
2022/12/04 10:11:45;;;;;;;0.20;0.20;;;;;;;0.30;100.00;101766.47;4976236;28;20453;-71
2022/12/04 10:14:27;;;;;;;0.20;0.20;;;;;;;0.14;100.00;101743.03;4977540;28;20045;-71
2022/12/04 10:17:45;;;;;;;0.20;0.20;;;;;;;0.28;100.00;101769.16;4991055;28;20034;-70
2022/12/04 10:20:45;;;;;;;0.20;0.20;;;;;;;0.36;100.00;101762.88;4925359;28;20047;-71
2022/12/04 10:23:13;;;;;;;0.20;0.20;;;;;;;0.39;100.00;101760.16;4976359;28;20031;-71
2022/12/04 10:25:39;;;;;;;0.20;0.20;;;;;;;0.19;100.00;101750.00;4979498;28;20153;-71
2022/12/04 10:28:19;;;;;;;0.20;0.20;;;;;;;0.40;100.00;101753.94;4983235;28;20077;-71
2022/12/04 10:30:46;;;;;;;0.20;0.20;;;;;;;0.44;100.00;101766.22;4998779;28;20030;-71
2022/12/04 10:33:16;;;;;;;0.20;0.20;;;;;;;0.26;100.00;101735.78;4974200;28;20021;-71
2022/12/04 10:35:43;;;;;;;0.20;0.20;;;;;;;0.29;100.00;101754.19;4980637;28;20026;-71
2022/12/04 10:38:32;;;;;;;0.20;0.20;;;;;;;0.36;100.00;101745.22;4969238;28;20049;-71
2022/12/04 10:41:11;;;;;;;0.20;0.20;;;;;;;0.29;100.00;101746.25;4982991;28;20038;-71
2022/12/04 10:43:43;;;;;;;0.20;0.20;;;;;;;0.44;100.00;101764.44;4979296;28;20033;-72
2022/12/04 10:46:13;;;;;;;0.20;0.20;;;;;;;0.30;100.00;101740.06;4978190;28;20026;-71
2022/12/04 10:48:39;;;;;;;0.20;0.20;;;;;;;0.48;100.00;101772.31;4975368;28;20038;-71
2022/12/04 10:51:05;;;;;;;0.20;0.20;;;;;;;0.48;100.00;101761.75;4977225;28;20742;-71
2022/12/04 10:53:34;;;;;;;0.20;0.20;;;;;;;0.41;100.00;101751.28;4964195;28;20494;-70
2022/12/04 10:56:13;;;;;;;0.20;0.20;;;;;;;0.67;100.00;101771.03;4983039;28;20022;-70
2022/12/04 10:58:39;;;;;;;0.28;0.28;;;;;;;0.63;100.00;101771.13;5002227;28;20034;-70
2022/12/04 11:01:07;;;;;;;0.20;0.20;;;;;;;0.46;100.00;101727.41;4983034;28;20068;-70
2022/12/04 11:03:32;;;;;;;0.20;0.20;;;;;;;0.41;100.00;101745.13;4979209;28;20076;-70
2022/12/04 11:06:04;;;;;;;0.30;0.30;;;;;;;0.44;100.00;101750.34;4986583;28;20033;-71
2022/12/04 11:08:39;;;;;;;0.20;0.20;;;;;;;0.51;100.00;101756.41;4976431;28;20406;-70
2022/12/04 11:11:10;;;;;;;0.20;0.20;;;;;;;0.60;100.00;101742.97;4974763;28;20030;-71
2022/12/04 11:13:36;;;;;;;0.20;0.20;;;;;;;0.32;100.00;101717.13;4957268;28;20096;-71
2022/12/04 11:16:02;;;;;;;0.30;0.30;;;;;;;0.53;100.00;101733.47;5000705;28;20034;-71
2022/12/04 11:18:30;;;;;;;0.30;0.30;;;;;;;0.51;100.00;101743.19;4993540;28;20425;-71
2022/12/04 11:20:58;;;;;;;0.22;0.22;;;;;;;0.37;100.00;101720.56;4980672;28;20272;-69
2022/12/04 11:23:25;;;;;;;0.20;0.20;;;;;;;0.42;100.00;101709.88;4973337;28;20026;-70
2022/12/04 11:25:53;;;;;;;0.20;0.20;;;;;;;0.46;100.00;101721.28;4995634;28;20231;-71
2022/12/04 11:28:22;;;;;;;0.20;0.20;;;;;;;0.53;100.00;101734.31;4993092;28;20033;-71
2022/12/04 11:30:53;;;;;;;0.20;0.20;;;;;;;0.38;100.00;101687.09;4992120;28;20064;-72
2022/12/04 11:33:28;;;;;;;0.20;0.20;;;;;;;0.59;100.00;101722.72;4974071;28;20056;-72
2022/12/04 11:35:56;;;;;;;0.30;0.30;;;;;;;0.52;100.00;101723.78;4991143;28;20532;-71
2022/12/04 11:38:24;;;;;;;0.20;0.20;;;;;;;0.47;100.00;101723.88;4973860;28;20033;-72
2022/12/04 11:40:54;;;;;;;0.20;0.20;;;;;;;0.59;100.00;101715.69;4987439;28;20145;-70
2022/12/04 11:43:20;;;;;;;0.20;0.20;;;;;;;0.64;100.00;101709.44;4975886;28;20473;-72
2022/12/04 11:45:57;;;;;;;0.20;0.20;;;;;;;0.50;100.00;101710.59;4973523;28;20077;-71
2022/12/04 11:48:22;;;;;;;0.20;0.20;;;;;;;0.51;100.00;101706.19;4979953;28;20030;-71